createdAt,value
2022-12-03T00:00:47.207Z,3.40
2022-12-03T00:03:36.090Z,3.40
2022-12-03T00:06:34.386Z,3.40
2022-12-03T00:09:03.606Z,3.40
2022-12-03T00:11:33.459Z,3.40
2022-12-03T00:14:01.985Z,3.40
2022-12-03T00:16:30.303Z,3.40
2022-12-03T00:18:58.576Z,3.40
2022-12-03T00:21:27.085Z,3.40
2022-12-03T00:23:55.418Z,3.40
2022-12-03T00:26:23.833Z,3.40
2022-12-03T00:28:54.830Z,3.40
2022-12-03T00:31:23.606Z,3.30
2022-12-03T00:33:52.172Z,3.40
2022-12-03T00:36:20.932Z,3.40
2022-12-03T00:38:49.307Z,3.40
2022-12-03T00:41:17.603Z,3.30
2022-12-03T00:43:46.016Z,3.30
2022-12-03T00:46:20.890Z,3.30
2022-12-03T00:48:49.861Z,3.30
2022-12-03T00:51:18.307Z,3.30
2022-12-03T00:53:46.772Z,3.30
2022-12-03T00:56:15.118Z,3.30
2022-12-03T00:58:43.408Z,3.30
2022-12-03T01:01:11.734Z,3.30
2022-12-03T01:03:41.528Z,3.30
2022-12-03T01:06:10.269Z,3.30
2022-12-03T01:08:39.618Z,3.30
2022-12-03T01:11:29.475Z,3.30
2022-12-03T01:13:57.802Z,3.30
2022-12-03T01:16:26.213Z,3.30
2022-12-03T01:18:55.945Z,3.30
2022-12-03T01:21:24.248Z,3.30
2022-12-03T01:23:52.550Z,3.30
2022-12-03T01:26:21.207Z,3.20
2022-12-03T01:28:49.600Z,3.30
2022-12-03T01:31:35.276Z,3.30
2022-12-03T01:34:06.493Z,3.30
2022-12-03T01:36:35.324Z,3.30
2022-12-03T01:39:04.627Z,3.30
2022-12-03T01:41:33.682Z,3.30
2022-12-03T01:44:02.409Z,3.20
2022-12-03T01:46:38.485Z,3.20
2022-12-03T01:49:11.139Z,3.20
2022-12-03T01:51:39.577Z,3.20
2022-12-03T01:54:07.862Z,3.30
2022-12-03T01:56:36.274Z,3.20
2022-12-03T01:59:04.697Z,3.30
2022-12-03T02:01:33.117Z,3.20
2022-12-03T02:04:01.459Z,3.20
2022-12-03T02:06:31.738Z,3.20
2022-12-03T02:09:00.275Z,3.20
2022-12-03T02:11:32.407Z,3.20
2022-12-03T02:14:05.906Z,3.30
2022-12-03T02:16:36.378Z,3.20
2022-12-03T02:19:09.701Z,3.30
2022-12-03T02:21:48.241Z,3.30
2022-12-03T02:24:24.839Z,3.30
2022-12-03T02:26:54.640Z,3.30
2022-12-03T02:29:24.038Z,3.30
2022-12-03T02:31:52.630Z,3.20
2022-12-03T02:34:38.237Z,3.20
2022-12-03T02:37:08.924Z,3.20
2022-12-03T02:39:40.841Z,3.20
2022-12-03T02:42:28.943Z,3.20
2022-12-03T02:45:02.114Z,3.20
2022-12-03T02:47:34.982Z,3.30
2022-12-03T02:50:04.299Z,3.30
2022-12-03T02:52:32.773Z,3.30
2022-12-03T02:55:01.644Z,3.30
2022-12-03T02:57:31.359Z,3.30
2022-12-03T02:59:59.804Z,3.30
2022-12-03T03:02:29.280Z,3.30
2022-12-03T03:04:58.379Z,3.30
2022-12-03T03:07:27.048Z,3.30
2022-12-03T03:09:55.563Z,3.30
2022-12-03T03:12:23.848Z,3.20
2022-12-03T03:14:53.968Z,3.30
2022-12-03T03:17:22.771Z,3.20
2022-12-03T03:19:51.119Z,3.20
2022-12-03T03:22:20.195Z,3.20
2022-12-03T03:24:48.484Z,3.20
2022-12-03T03:27:16.862Z,3.30
2022-12-03T03:29:45.309Z,3.30
2022-12-03T03:32:15.023Z,3.30
2022-12-03T03:34:43.340Z,3.20
2022-12-03T03:37:11.740Z,3.20
2022-12-03T03:39:40.191Z,3.20
2022-12-03T03:42:09.566Z,3.20
2022-12-03T03:44:38.087Z,3.20
2022-12-03T03:47:06.584Z,3.20
2022-12-03T03:49:36.824Z,3.20
2022-12-03T03:52:05.368Z,3.20
2022-12-03T03:54:34.169Z,3.20
2022-12-03T03:57:02.858Z,3.20
2022-12-03T03:59:31.334Z,3.20
2022-12-03T04:01:59.656Z,3.20
2022-12-03T04:04:33.262Z,3.20
2022-12-03T04:07:03.210Z,3.20
2022-12-03T04:09:31.476Z,3.10
2022-12-03T04:12:17.216Z,3.20
2022-12-03T04:14:45.549Z,3.20
2022-12-03T04:17:13.892Z,3.20
2022-12-03T04:19:42.187Z,3.10
2022-12-03T04:22:40.532Z,3.10
2022-12-03T04:25:28.538Z,3.20
2022-12-03T04:28:14.050Z,3.10
2022-12-03T04:30:42.384Z,3.20
2022-12-03T04:33:39.579Z,3.20
2022-12-03T04:36:08.221Z,3.20
2022-12-03T04:38:37.835Z,3.20
2022-12-03T04:41:06.248Z,3.20
2022-12-03T04:43:56.077Z,3.20
2022-12-03T04:46:24.496Z,3.20
2022-12-03T04:48:53.837Z,3.20
2022-12-03T04:51:22.187Z,3.10
2022-12-03T04:53:52.185Z,3.10
2022-12-03T04:56:20.613Z,3.20
2022-12-03T04:58:48.932Z,3.10
2022-12-03T05:01:17.244Z,3.10
2022-12-03T05:03:45.594Z,3.10
2022-12-03T05:06:13.896Z,3.10
2022-12-03T05:08:42.286Z,3.20
2022-12-03T05:11:12.007Z,3.10
2022-12-03T05:13:40.254Z,3.20
2022-12-03T05:16:09.359Z,3.20
2022-12-03T05:18:37.819Z,3.10
2022-12-03T05:21:06.326Z,3.10
2022-12-03T05:23:34.841Z,3.20
2022-12-03T05:26:03.198Z,3.20
2022-12-03T05:28:33.005Z,3.10
2022-12-03T05:31:01.311Z,3.20
2022-12-03T05:33:30.655Z,3.20
2022-12-03T05:35:59.222Z,3.10
2022-12-03T05:38:28.172Z,3.20
2022-12-03T05:40:56.599Z,3.20
2022-12-03T05:43:24.230Z,3.20
2022-12-03T05:45:53.909Z,3.30
2022-12-03T05:48:22.364Z,3.20
2022-12-03T05:50:50.594Z,3.20
2022-12-03T05:53:19.039Z,3.20
2022-12-03T05:55:47.334Z,3.20
2022-12-03T05:58:15.586Z,3.20
2022-12-03T06:00:44.133Z,3.20
2022-12-03T06:03:13.851Z,3.20
2022-12-03T06:05:42.271Z,3.20
2022-12-03T06:08:10.769Z,3.20
2022-12-03T06:10:39.133Z,3.20
2022-12-03T06:13:07.510Z,3.20
2022-12-03T06:15:40.420Z,3.20
2022-12-03T06:18:13.454Z,3.20
2022-12-03T06:20:41.718Z,3.20
2022-12-03T06:23:10.099Z,3.20
2022-12-03T06:25:38.462Z,3.20
2022-12-03T06:28:07.436Z,3.20
2022-12-03T06:30:35.999Z,3.20
2022-12-03T06:33:04.279Z,3.20
2022-12-03T06:35:34.047Z,3.20
2022-12-03T06:38:02.465Z,3.20
2022-12-03T06:40:30.872Z,3.10
2022-12-03T06:42:59.206Z,3.20
2022-12-03T06:45:27.471Z,3.20
2022-12-03T06:47:55.831Z,3.10
2022-12-03T06:50:24.271Z,3.20
2022-12-03T06:52:53.968Z,3.20
2022-12-03T06:55:22.370Z,3.20
2022-12-03T06:57:50.696Z,3.20
2022-12-03T07:00:20.006Z,3.20
2022-12-03T07:02:48.403Z,3.10
2022-12-03T07:05:16.954Z,3.10
2022-12-03T07:07:45.396Z,3.20
2022-12-03T07:10:15.313Z,3.20
2022-12-03T07:12:43.624Z,3.20
2022-12-03T07:15:12.339Z,3.20
2022-12-03T07:17:40.682Z,3.20
2022-12-03T07:20:10.181Z,3.20
2022-12-03T07:22:38.536Z,3.20
2022-12-03T07:25:07.635Z,3.20
2022-12-03T07:27:37.298Z,3.20
2022-12-03T07:30:06.920Z,3.20
2022-12-03T07:32:35.225Z,3.20
2022-12-03T07:35:07.261Z,3.20
2022-12-03T07:37:36.024Z,3.20
2022-12-03T07:40:04.831Z,3.20
2022-12-03T07:42:33.166Z,3.20
2022-12-03T07:45:03.056Z,3.20
2022-12-03T07:47:31.326Z,3.20
2022-12-03T07:49:59.781Z,3.20
2022-12-03T07:52:30.654Z,3.20
2022-12-03T07:54:58.893Z,3.20
2022-12-03T07:57:27.337Z,3.20
2022-12-03T07:59:55.632Z,3.20
2022-12-03T08:02:25.326Z,3.10
2022-12-03T08:04:53.791Z,3.20
2022-12-03T08:07:22.357Z,3.20
2022-12-03T08:09:51.556Z,3.20
2022-12-03T08:12:24.816Z,3.30
2022-12-03T08:14:53.594Z,3.30
2022-12-03T08:17:22.076Z,3.30
2022-12-03T08:19:51.782Z,3.30
2022-12-03T08:22:20.041Z,3.30
2022-12-03T08:24:48.408Z,3.30
2022-12-03T08:27:20.404Z,3.30
2022-12-03T08:29:48.767Z,3.30
2022-12-03T08:32:17.234Z,3.30
2022-12-03T08:34:46.276Z,3.30
2022-12-03T08:37:18.935Z,3.30
2022-12-03T08:39:49.224Z,3.30
2022-12-03T08:42:38.503Z,3.30
2022-12-03T08:45:42.571Z,3.30
2022-12-03T08:48:32.606Z,3.30
2022-12-03T08:51:04.511Z,3.40
2022-12-03T08:53:37.006Z,3.40
2022-12-03T08:56:14.128Z,3.30
2022-12-03T08:58:44.215Z,3.30
2022-12-03T09:01:33.967Z,3.30
2022-12-03T09:04:27.587Z,3.40
2022-12-03T09:06:56.896Z,3.30
2022-12-03T09:09:26.662Z,3.40
2022-12-03T09:11:55.849Z,3.40
2022-12-03T09:14:24.466Z,3.40
2022-12-03T09:16:55.852Z,3.40
2022-12-03T09:19:25.095Z,3.40
2022-12-03T09:21:53.672Z,3.40
2022-12-03T09:24:22.038Z,3.40
2022-12-03T09:26:51.856Z,3.50
2022-12-03T09:29:20.255Z,3.50
2022-12-03T09:31:48.661Z,3.50
2022-12-03T09:34:17.109Z,3.50
2022-12-03T09:36:45.517Z,3.50
2022-12-03T09:39:13.843Z,3.50
2022-12-03T09:41:42.225Z,3.50
2022-12-03T09:44:17.637Z,3.50
2022-12-03T09:46:47.783Z,3.50
2022-12-03T09:49:19.582Z,3.60
2022-12-03T09:51:48.578Z,3.60
2022-12-03T09:54:24.923Z,3.50
2022-12-03T09:56:53.989Z,3.50
2022-12-03T09:59:26.251Z,3.60
2022-12-03T10:01:55.397Z,3.70
2022-12-03T10:04:24.012Z,3.60
2022-12-03T10:06:52.954Z,3.80
2022-12-03T10:09:27.696Z,3.80
2022-12-03T10:11:56.648Z,3.70
2022-12-03T10:14:26.763Z,3.70
2022-12-03T10:16:55.533Z,3.80
2022-12-03T10:19:27.657Z,3.80
2022-12-03T10:21:56.829Z,3.70
2022-12-03T10:24:28.621Z,3.80
2022-12-03T10:26:58.371Z,3.70
2022-12-03T10:29:33.651Z,3.70
2022-12-03T10:32:04.749Z,3.70
2022-12-03T10:34:35.408Z,3.80
2022-12-03T10:37:15.846Z,3.80
2022-12-03T10:40:01.820Z,3.80
2022-12-03T10:42:32.674Z,3.80
2022-12-03T10:45:26.254Z,3.70
2022-12-03T10:48:07.020Z,3.80
2022-12-03T10:50:36.057Z,3.80
2022-12-03T10:53:05.382Z,3.80
2022-12-03T10:55:39.852Z,3.80
2022-12-03T10:58:15.412Z,3.80
2022-12-03T11:00:45.202Z,3.80
2022-12-03T11:03:20.261Z,3.90
2022-12-03T11:05:48.625Z,3.90
2022-12-03T11:08:19.611Z,3.90
2022-12-03T11:10:56.991Z,3.90
2022-12-03T11:13:48.953Z,3.80
2022-12-03T11:17:12.288Z,3.80
2022-12-03T11:19:47.084Z,3.90
2022-12-03T11:22:28.802Z,3.80
2022-12-03T11:25:57.529Z,3.80
2022-12-03T11:28:37.518Z,3.80
2022-12-03T11:31:12.380Z,3.70
2022-12-03T11:33:44.053Z,3.60
2022-12-03T11:36:17.642Z,3.70
2022-12-03T11:38:53.634Z,3.70
2022-12-03T11:41:28.640Z,3.70
2022-12-03T11:44:32.685Z,3.70
2022-12-03T11:47:08.696Z,3.70
2022-12-03T11:49:47.081Z,3.70
2022-12-03T11:52:39.647Z,3.70
2022-12-03T11:55:17.588Z,3.80
2022-12-03T11:57:46.405Z,3.80
2022-12-03T12:00:23.943Z,3.90
2022-12-03T12:02:53.778Z,3.90
2022-12-03T12:05:27.767Z,3.90
2022-12-03T12:07:57.275Z,3.90
2022-12-03T12:10:47.541Z,4.00
2022-12-03T12:13:57.483Z,4.00
2022-12-03T12:16:46.089Z,4.00
2022-12-03T12:19:45.711Z,4.00
2022-12-03T12:22:21.459Z,3.90
2022-12-03T12:24:52.452Z,3.90
2022-12-03T12:27:22.913Z,3.90
2022-12-03T12:29:57.165Z,3.90
2022-12-03T12:32:28.167Z,3.90
2022-12-03T12:35:00.530Z,3.90
2022-12-03T12:37:35.484Z,3.80
2022-12-03T12:40:11.540Z,3.90
2022-12-03T12:42:44.058Z,4.00
2022-12-03T12:45:17.848Z,3.90
2022-12-03T12:47:51.166Z,4.00
2022-12-03T12:50:20.828Z,4.00
2022-12-03T12:52:53.526Z,3.90
2022-12-03T12:55:23.905Z,4.00
2022-12-03T12:57:52.708Z,4.00
2022-12-03T13:00:24.303Z,4.10
2022-12-03T13:02:57.606Z,4.00
2022-12-03T13:05:27.873Z,4.10
2022-12-03T13:07:58.054Z,4.10
2022-12-03T13:10:35.088Z,4.10
2022-12-03T13:13:25.425Z,4.10
2022-12-03T13:16:06.635Z,4.10
2022-12-03T13:18:40.975Z,4.10
2022-12-03T13:21:22.220Z,4.00
2022-12-03T13:23:53.648Z,4.00
2022-12-03T13:26:34.507Z,4.10
2022-12-03T13:29:13.323Z,4.00
2022-12-03T13:31:44.395Z,4.00
2022-12-03T13:34:20.039Z,4.00
2022-12-03T13:36:55.446Z,4.00
2022-12-03T13:39:32.343Z,4.00
2022-12-03T13:42:33.494Z,3.90
2022-12-03T13:45:03.893Z,4.00
2022-12-03T13:47:33.168Z,3.90
2022-12-03T13:50:11.369Z,4.00
2022-12-03T13:52:39.685Z,3.90
2022-12-03T13:55:12.695Z,3.80
2022-12-03T13:57:41.121Z,3.80
2022-12-03T14:00:11.152Z,3.80
2022-12-03T14:02:39.957Z,3.80
2022-12-03T14:05:08.791Z,3.80
2022-12-03T14:07:37.362Z,3.80
2022-12-03T14:10:06.407Z,3.80
2022-12-03T14:12:36.271Z,3.70
2022-12-03T14:15:06.332Z,3.70
2022-12-03T14:17:34.618Z,3.70
2022-12-03T14:20:04.063Z,3.70
2022-12-03T14:22:32.527Z,3.60
2022-12-03T14:25:00.926Z,3.50
2022-12-03T14:27:29.213Z,3.50
2022-12-03T14:29:59.256Z,3.50
2022-12-03T14:32:27.618Z,3.60
2022-12-03T14:34:55.895Z,3.50
2022-12-03T14:37:24.403Z,3.50
2022-12-03T14:39:53.142Z,3.50
2022-12-03T14:42:21.542Z,3.40
2022-12-03T14:44:51.478Z,3.30
2022-12-03T14:47:23.584Z,3.30
2022-12-03T14:49:53.140Z,3.40
2022-12-03T14:52:21.886Z,3.30
2022-12-03T14:54:50.128Z,3.30
2022-12-03T14:57:18.527Z,3.30
2022-12-03T14:59:47.964Z,3.30
2022-12-03T15:02:16.282Z,3.20
2022-12-03T15:04:45.973Z,3.20
2022-12-03T15:07:14.298Z,3.20
2022-12-03T15:09:42.570Z,3.20
2022-12-03T15:12:10.864Z,3.20
2022-12-03T15:14:39.259Z,3.10
2022-12-03T15:17:07.630Z,3.10
2022-12-03T15:19:36.270Z,3.10
2022-12-03T15:22:05.983Z,3.10
2022-12-03T15:24:34.277Z,3.10
2022-12-03T15:27:02.537Z,3.00
2022-12-03T15:29:32.517Z,3.00
2022-12-03T15:32:01.111Z,3.00
2022-12-03T15:34:29.385Z,3.00
2022-12-03T15:36:57.723Z,3.00
2022-12-03T15:39:27.899Z,3.00
2022-12-03T15:41:56.392Z,2.90
2022-12-03T15:44:24.677Z,2.90
2022-12-03T15:46:53.211Z,3.00
2022-12-03T15:49:21.565Z,2.90
2022-12-03T15:51:49.924Z,2.90
2022-12-03T15:54:18.380Z,2.90
2022-12-03T15:56:51.489Z,2.90
2022-12-03T15:59:22.396Z,2.90
2022-12-03T16:01:50.706Z,2.90
2022-12-03T16:04:19.133Z,2.90
2022-12-03T16:06:47.454Z,2.90
2022-12-03T16:09:15.842Z,2.90
2022-12-03T16:11:44.153Z,2.90
2022-12-03T16:14:13.743Z,2.90
2022-12-03T16:16:42.114Z,2.90
2022-12-03T16:19:10.513Z,2.80
2022-12-03T16:21:38.861Z,2.80
2022-12-03T16:24:07.546Z,2.80
2022-12-03T16:26:35.952Z,2.80
2022-12-03T16:29:04.429Z,2.80
2022-12-03T16:31:34.179Z,2.80
2022-12-03T16:34:02.704Z,2.80
2022-12-03T16:36:31.026Z,2.80
2022-12-03T16:38:59.289Z,2.80
2022-12-03T16:41:27.916Z,2.80
2022-12-03T16:43:56.212Z,2.80
2022-12-03T16:46:26.821Z,2.80
2022-12-03T16:48:58.019Z,2.80
2022-12-03T16:51:27.248Z,2.80
2022-12-03T16:53:56.004Z,2.80
2022-12-03T16:56:24.434Z,2.80
2022-12-03T16:58:52.793Z,2.80
2022-12-03T17:01:21.291Z,2.80
2022-12-03T17:03:49.526Z,2.70
2022-12-03T17:06:19.271Z,2.70
2022-12-03T17:08:49.741Z,2.80
2022-12-03T17:11:19.019Z,2.80
2022-12-03T17:13:47.509Z,2.80
2022-12-03T17:16:15.769Z,2.80
2022-12-03T17:18:44.202Z,2.80
2022-12-03T17:21:12.482Z,2.80
2022-12-03T17:23:42.136Z,2.80
2022-12-03T17:26:10.545Z,2.80
2022-12-03T17:28:38.880Z,2.80
2022-12-03T17:31:07.403Z,2.80
2022-12-03T17:33:35.766Z,2.80
2022-12-03T17:36:04.123Z,2.80
2022-12-03T17:38:37.348Z,2.80
2022-12-03T17:41:09.140Z,2.80
2022-12-03T17:43:37.429Z,2.70
2022-12-03T17:46:06.733Z,2.70
2022-12-03T17:48:35.386Z,2.70
2022-12-03T17:51:03.853Z,2.70
2022-12-03T17:53:32.119Z,2.70
2022-12-03T17:56:00.483Z,2.70
2022-12-03T17:58:30.172Z,2.70
2022-12-03T18:01:02.392Z,2.70
2022-12-03T18:03:31.892Z,2.80
2022-12-03T18:06:00.534Z,2.70
2022-12-03T18:08:28.940Z,2.80
2022-12-03T18:10:57.450Z,2.80
2022-12-03T18:13:25.795Z,2.80
2022-12-03T18:15:55.989Z,2.70
2022-12-03T18:18:24.343Z,2.80
2022-12-03T18:20:54.236Z,2.70
2022-12-03T18:23:22.633Z,2.70
2022-12-03T18:25:50.966Z,2.70
2022-12-03T18:28:19.408Z,2.70
2022-12-03T18:30:52.403Z,2.80
2022-12-03T18:33:23.606Z,2.70
2022-12-03T18:35:54.890Z,2.80
2022-12-03T18:38:27.145Z,2.80
2022-12-03T18:40:57.077Z,2.80
2022-12-03T18:43:28.275Z,2.80
2022-12-03T18:45:56.592Z,2.80
2022-12-03T18:48:26.492Z,2.80
2022-12-03T18:50:56.513Z,2.80
2022-12-03T18:53:24.791Z,2.80
2022-12-03T18:55:53.072Z,2.70
2022-12-03T18:58:21.521Z,2.70
2022-12-03T19:00:49.947Z,2.70
2022-12-03T19:03:18.402Z,2.70
2022-12-03T19:05:48.063Z,2.80
2022-12-03T19:08:16.469Z,2.80
2022-12-03T19:10:44.836Z,2.80
2022-12-03T19:13:13.242Z,2.80
2022-12-03T19:15:41.642Z,2.80
2022-12-03T19:18:11.234Z,2.70
2022-12-03T19:20:42.094Z,2.70
2022-12-03T19:23:12.186Z,2.70
2022-12-03T19:25:40.455Z,2.70
2022-12-03T19:28:08.909Z,2.70
2022-12-03T19:30:37.199Z,2.70
2022-12-03T19:33:05.602Z,2.70
2022-12-03T19:35:33.858Z,2.70
2022-12-03T19:38:02.161Z,2.60
2022-12-03T19:40:32.223Z,2.60
2022-12-03T19:43:00.524Z,2.60
2022-12-03T19:45:29.035Z,2.60
2022-12-03T19:48:00.358Z,2.70
2022-12-03T19:50:28.916Z,2.70
2022-12-03T19:52:59.607Z,2.70
2022-12-03T19:55:27.895Z,2.70
2022-12-03T19:57:57.545Z,2.70
2022-12-03T20:00:25.896Z,2.70
2022-12-03T20:02:54.251Z,2.70
2022-12-03T20:05:22.615Z,2.70
2022-12-03T20:07:51.073Z,2.60
2022-12-03T20:10:19.544Z,2.60
2022-12-03T20:12:47.991Z,2.60
2022-12-03T20:15:17.922Z,2.60
2022-12-03T20:17:46.153Z,2.60
2022-12-03T20:20:14.798Z,2.60
2022-12-03T20:22:43.149Z,2.60
2022-12-03T20:25:11.931Z,2.60
2022-12-03T20:27:40.214Z,2.60
2022-12-03T20:30:10.062Z,2.60
2022-12-03T20:32:45.063Z,2.60
2022-12-03T20:35:13.987Z,2.60
2022-12-03T20:37:42.333Z,2.60
2022-12-03T20:40:11.595Z,2.60
2022-12-03T20:42:39.912Z,2.60
2022-12-03T20:45:09.535Z,2.60
2022-12-03T20:47:39.345Z,2.60
2022-12-03T20:50:09.035Z,2.60
2022-12-03T20:52:37.560Z,2.60
2022-12-03T20:55:06.559Z,2.60
2022-12-03T20:57:34.824Z,2.60
2022-12-03T21:00:03.460Z,2.60
2022-12-03T21:02:31.786Z,2.60
2022-12-03T21:05:01.542Z,2.60
2022-12-03T21:07:29.970Z,2.60
2022-12-03T21:09:58.286Z,2.60
2022-12-03T21:12:28.169Z,2.60
2022-12-03T21:14:56.519Z,2.60
2022-12-03T21:17:24.899Z,2.60
2022-12-03T21:19:53.446Z,2.60
2022-12-03T21:22:24.420Z,2.60
2022-12-03T21:24:52.715Z,2.60
2022-12-03T21:27:21.966Z,2.60
2022-12-03T21:29:50.834Z,2.60
2022-12-03T21:32:19.399Z,2.60
2022-12-03T21:34:47.836Z,2.60
2022-12-03T21:37:46.059Z,2.60
2022-12-03T21:40:15.548Z,2.60
2022-12-03T21:42:43.936Z,2.60
2022-12-03T21:45:13.441Z,2.60
2022-12-03T21:47:42.267Z,2.60
2022-12-03T21:50:12.315Z,2.60
2022-12-03T21:52:40.638Z,2.60
2022-12-03T21:55:11.558Z,2.50
2022-12-03T21:57:39.983Z,2.60
2022-12-03T22:00:09.973Z,2.60
2022-12-03T22:02:40.114Z,2.50
2022-12-03T22:05:09.522Z,2.50
2022-12-03T22:07:39.392Z,2.50
2022-12-03T22:10:11.725Z,2.50
2022-12-03T22:12:40.916Z,2.60
2022-12-03T22:15:13.521Z,2.50
2022-12-03T22:17:46.797Z,2.50
2022-12-03T22:20:15.334Z,2.50
2022-12-03T22:22:43.675Z,2.50
2022-12-03T22:25:13.556Z,2.50
2022-12-03T22:27:41.868Z,2.50
2022-12-03T22:30:11.010Z,2.50
2022-12-03T22:32:39.309Z,2.50
2022-12-03T22:35:08.261Z,2.50
2022-12-03T22:37:36.729Z,2.50
2022-12-03T22:40:06.410Z,2.50
2022-12-03T22:42:36.093Z,2.50
2022-12-03T22:45:04.753Z,2.50
2022-12-03T22:47:33.054Z,2.50
2022-12-03T22:50:01.333Z,2.50
2022-12-03T22:52:29.648Z,2.50
2022-12-03T22:54:57.859Z,2.50
2022-12-03T22:57:26.245Z,2.50
2022-12-03T22:59:56.275Z,2.50
2022-12-03T23:02:24.846Z,2.50
2022-12-03T23:04:56.472Z,2.50
2022-12-03T23:07:24.829Z,2.50
2022-12-03T23:09:54.359Z,2.50
2022-12-03T23:12:22.906Z,2.50
2022-12-03T23:14:56.011Z,2.50
2022-12-03T23:17:24.477Z,2.60
2022-12-03T23:19:53.427Z,2.60
2022-12-03T23:22:22.110Z,2.50
2022-12-03T23:24:50.396Z,2.50
2022-12-03T23:27:18.815Z,2.50
2022-12-03T23:29:47.155Z,2.50
2022-12-03T23:32:17.300Z,2.50
2022-12-03T23:34:45.920Z,2.60
2022-12-03T23:37:14.272Z,2.50
2022-12-03T23:39:42.573Z,2.50
2022-12-03T23:42:10.874Z,2.50
2022-12-03T23:44:39.271Z,2.40
2022-12-03T23:47:07.568Z,2.40
2022-12-03T23:49:37.696Z,2.40
2022-12-03T23:52:06.058Z,2.40
2022-12-03T23:54:34.379Z,2.50
2022-12-03T23:57:02.806Z,2.50
2022-12-03T23:59:31.192Z,2.50
